Latest Coastal Weather Observations for Townsville

IDQ60701

Issued at 10:55 pm EST Wednesday 27 August 2014 (issued every 10 minutes, with the page automatically refreshed every 10 minutes)

About coastal observations | Map of coastal stations | Coastal observations for QLD | Marine services | Other Formats
Station Details ID: 032040 Name: TOWNSVILLE AERO Lat: -19.25 Lon: 146.77 Height: 4.34 m
Data from the previous 72 hours. | See also: Recent months at Townsville
Date/Time
EST
Temp

°C
Wind Pressure Rain
since 9am
mm
Weather Cloud Vis
km
Sea
Height
m
Swell
Dir
 
Speed
knots
Gust
knots
hPa Trend Height
m
Period
s
Dir
27/10:30pm 16.3 CALM 0 0 1017.3 - 0.0 - - 10 - - - -
27/10:00pm 16.8 S 1 3 1017.2 - 0.0 - - 10 - - - -
27/09:30pm 18.0 S 5 7 1017.2 - 0.0 - - 10 - - - -
27/09:00pm 19.2 SSW 4 5 1016.9 R 0.0 Smoke Clear 50 - - - -
27/08:30pm 19.7 SSW 4 5 1016.8 - 0.0 - - 10 - - - -
27/08:00pm 19.1 SW 5 6 1016.6 - 0.0 - - 10 - - - -
27/07:30pm 18.8 WNW 6 7 1016.0 - 0.0 - - 10 - - - -
27/07:00pm 19.4 W 5 6 1015.5 - 0.0 - - 10 - - - -
27/06:30pm 19.4 WNW 5 7 1015.0 - 0.0 - - 10 - - - -
27/06:00pm 21.9 WNW 5 7 1014.6 R 0.0 Smoke Clear 50 - - - -
27/05:30pm 24.0 N 6 9 1014.2 - 0.0 - - 10 - - - -
27/05:00pm 25.6 NE 6 7 1013.9 - 0.0 - - 10 - - - -
27/04:30pm 25.7 NNE 6 8 1013.7 - 0.0 - - 10 - - - -
27/04:00pm 26.0 NE 8 9 1013.6 - 0.0 - - 10 - - - -
27/03:30pm 26.5 ENE 9 10 1013.6 - 0.0 - - 10 - - - -
27/03:00pm 26.6 NE 11 14 1013.6 F 0.0 Haze Clear 50 - - - -
27/02:30pm 26.1 NNE 12 14 1013.9 - 0.0 - - 10 - - - -
27/02:00pm 27.6 SSW 7 11 1014.3 - 0.0 - - 10 - - - -
27/01:30pm 27.3 SSE 6 13 1014.7 - 0.0 - - 10 - - - -
27/01:00pm 27.4 SW 8 14 1015.2 - 0.0 - - 10 - - - -
27/12:30pm 26.7 S 7 11 1015.8 - 0.0 - - 10 - - - -
27/12:00pm 26.2 SW 7 10 1016.5 F 0.0 Fine Clear 50 - - - -
27/11:30am 25.6 SW 5 10 1017.0 - 0.0 - - 10 - - - -
27/11:00am 24.8 SW 7 11 1017.5 - 0.0 - - 10 - - - -
27/10:30am 24.3 SSW 7 11 1017.9 - 0.0 - - 10 - - - -
27/10:00am 23.2 SW 10 15 1018.2 - 0.0 - - 10 - - - -
27/09:30am 22.4 SSW 11 15 1018.3 - 0.0 - - 10 - - - -
27/09:00am 20.9 SSW 8 10 1018.3 R 0.0 Fine Clear 50 - - - -
27/08:30am 18.9 W 1 5 1018.1 - 0.0 - - 10 - - - -
27/08:00am 16.7 CALM 0 0 1018.1 - 0.0 - - 10 - - - -
27/07:30am 14.7 CALM 0 0 1017.8 - 0.0 - - 10 - - - -
27/07:00am 13.9 CALM 0 0 1017.3 - 0.0 - - 10 - - - -
27/06:30am 13.2 CALM 0 0 1017.0 - 0.0 Shallow fog - 10 - - - -
27/06:00am 13.4 CALM 0 0 1016.5 R 0.0 Shallow fog Clear 40 - - - -
27/05:30am 13.2 CALM 0 0 1016.3 - 0.0 - - 10 - - - -
27/05:00am 12.8 W 4 4 1016.1 - 0.0 - - 10 - - - -
27/04:30am 12.9 NW 1 4 1016.2 - 0.0 - - 10 - - - -
27/04:00am 13.4 N 5 6 1016.0 - 0.0 - - 10 - - - -
27/03:30am 14.1 SSW 1 4 1016.0 - 0.0 - - 10 - - - -
27/03:00am 13.3 CALM 0 0 1015.9 - 0.0 - - 10 - - - -
27/02:30am 13.7 CALM 0 0 1015.9 - 0.0 - - 10 - - - -
27/02:00am 13.8 CALM 0 0 1016.3 - 0.0 - - 10 - - - -
27/01:30am 14.4 CALM 0 0 1016.6 - 0.0 - - 10 - - - -
27/01:00am 14.5 CALM 0 0 1016.9 - 0.0 - - 10 - - - -
27/12:30am 15.2 CALM 0 0 1017.1 - 0.0 - - 10 - - - -
27/12:00am 15.8 S 0 0 1017.4 - 0.0 - - 10 - - - -
 
Date/Time
EST
Temp

°C
Wind Pressure Rain
since 9am
mm
Weather Cloud Vis
km
Sea
Height
m
Swell
Dir
 
Speed
knots
Gust
knots
hPa Trend Height
m
Period
s
Dir
26/11:30pm 15.8 CALM 0 0 1017.5 - 0.0 - - 10 - - - -
26/11:00pm 16.0 S 3 4 1017.5 - 0.0 - - 10 - - - -
26/10:30pm 15.8 CALM 0 3 1017.4 - 0.0 - - 10 - - - -
26/10:00pm 17.6 S 4 5 1017.4 - 0.0 - - 10 - - - -
26/09:30pm 18.0 S 4 4 1017.5 - 0.0 - - 10 - - - -
26/09:00pm 18.0 CALM 0 0 1017.4 R 0.0 Smoke Clear 30 - - - -
26/08:30pm 17.7 CALM 0 0 1017.3 - 0.0 - - 10 - - - -
26/08:00pm 19.0 N 1 4 1016.9 - 0.0 - - 10 - - - -
26/07:30pm 19.4 NE 6 8 1016.6 - 0.0 - - 10 - - - -
26/07:00pm 18.9 NE 6 8 1016.3 - 0.0 - - 10 - - - -
26/06:30pm 20.4 NE 9 11 1015.8 - 0.0 - - 10 - - - -
26/06:00pm 21.2 ENE 10 12 1015.4 R 0.0 Smoke Clear 40 - - - -
26/05:30pm 22.2 ENE 12 15 1015.2 - 0.0 - - 10 - - - -
26/05:00pm 23.1 ENE 12 15 1014.9 - 0.0 - - 10 - - - -
26/04:30pm 23.8 NE 13 16 1014.9 - 0.0 - - 10 - - - -
26/04:00pm 24.2 NE 12 16 1014.6 - 0.0 - - 10 - - - -
26/03:30pm 24.3 NE 12 16 1014.5 - 0.0 - - 10 - - - -
26/03:00pm 24.7 NE 15 18 1014.6 R 0.0 Fine Clear 50 - - - -
26/02:30pm 24.5 ENE 16 19 1014.7 - 0.0 - Mostly clear 10 - - - -
26/02:00pm 24.6 NE 15 17 1014.9 - 0.0 - - 10 - - - -
26/01:30pm 25.7 NE 14 17 1015.2 - 0.0 - Mostly clear 10 - - - -
26/01:00pm 26.1 NE 13 15 1015.7 - 0.0 - Mostly clear 10 - - - -
26/12:30pm 26.1 NE 11 15 1016.0 - 0.0 - Mostly clear 10 - - - -
26/12:00pm 25.9 NE 8 11 1016.6 F 0.0 Fine Mostly clear 50 - - - -
26/11:30am 25.3 NE 9 14 1017.3 - 0.0 - Mostly clear 10 - - - -
26/11:00am 24.8 NE 7 10 1017.7 - 0.0 - Mostly clear 10 - - - -
26/10:30am 24.1 NNE 4 7 1018.2 - 0.0 - Mostly clear 10 - - - -
26/10:00am 23.2 NE 4 6 1018.4 - 0.0 - - 10 - - - -
26/09:30am 22.6 CALM 0 4 1018.4 - 0.0 - - 10 - - - -
26/09:00am 21.6 NNW 1 4 1018.4 F 0.0 Fine Clear 40 - - - -
26/08:30am 19.3 CALM 0 0 1018.3 - 0.0 - - 10 - - - -
26/08:00am 17.6 CALM 0 0 1018.0 - 0.0 - - 10 - - - -
26/07:30am 15.5 CALM 0 0 1017.6 - 0.0 - - 10 - - - -
26/07:00am 14.3 WSW 4 4 1017.3 - 0.0 - - 10 - - - -
26/06:30am 14.0 CALM 0 0 1017.1 - 0.0 Shallow fog - 10 - - - -
26/06:00am 14.3 CALM 0 0 1016.8 R 0.0 Fine Clear 40 - - - -
26/05:30am 13.6 CALM 0 0 1016.5 - 0.0 - - 10 - - - -
26/05:00am 13.5 CALM 0 0 1016.2 - 0.0 - - 10 - - - -
26/04:30am 14.0 CALM 0 0 1016.1 - 0.0 - - 10 - - - -
26/04:00am 13.8 CALM 0 0 1016.0 - 0.0 - - 10 - - - -
26/03:30am 13.8 CALM 0 4 1016.1 - 0.0 - - 10 - - - -
26/03:00am 14.5 CALM 0 0 1016.2 - 0.0 - - 10 - - - -
26/02:30am 14.8 CALM 0 0 1016.4 - 0.0 - - 10 - - - -
26/02:00am 14.5 CALM 0 0 1016.7 - 0.0 - - 10 - - - -
26/01:30am 14.8 CALM 0 0 1017.2 - 0.0 - - 10 - - - -
26/01:00am 15.1 CALM 0 0 1017.6 - 0.0 - - 10 - - - -
26/12:30am 15.6 CALM 0 0 1017.8 - 0.0 - - 10 - - - -
26/12:00am 16.1 CALM 0 0 1018.0 - 0.0 - - 10 - - - -
 
Date/Time
EST
Temp

°C
Wind Pressure Rain
since 9am
mm
Weather Cloud Vis
km
Sea
Height
m
Swell
Dir
 
Speed
knots
Gust
knots
hPa Trend Height
m
Period
s
Dir
25/11:30pm 16.3 CALM 0 0 1018.2 - 0.0 - - 10 - - - -
25/11:00pm 16.8 CALM 0 0 1018.4 - 0.0 - - 10 - - - -
25/10:30pm 18.2 S 4 5 1018.5 - 0.0 - - 10 - - - -
25/10:00pm 18.5 S 5 6 1018.6 - 0.0 - - 10 - - - -
25/09:30pm 19.0 S 5 5 1018.7 - 0.0 - - 10 - - - -
25/09:00pm 18.9 S 5 6 1018.7 F 0.0 Fine Clear 45 - - - -
25/08:30pm 18.8 SE 4 6 1018.5 - 0.0 - - 10 - - - -
25/08:00pm 19.7 E 7 8 1018.4 - 0.0 - - 10 - - - -
25/07:30pm 19.9 ENE 7 9 1018.1 - 0.0 - - 10 - - - -
25/07:00pm 20.2 NE 7 8 1017.9 - 0.0 - - 10 - - - -
25/06:30pm 20.7 ENE 9 13 1017.5 - 0.0 - - 10 - - - -
25/06:00pm 21.4 ENE 9 12 1017.2 R 0.0 Smoke Mostly clear 30 - - - -
25/05:30pm 22.2 ENE 11 14 1017.0 - 0.0 - Mostly clear 10 - - - -
25/05:00pm 22.8 ENE 12 15 1016.6 - 0.0 - Mostly clear 10 - - - -
25/04:30pm 23.1 ENE 15 18 1016.3 - 0.0 - Mostly clear 10 - - - -
25/04:00pm 23.2 ENE 18 22 1016.2 - 0.0 - Mostly clear 10 - - - -
25/03:30pm 23.7 ENE 17 21 1016.4 - 0.0 - Mostly clear 10 - - - -
25/03:00pm 24.4 ENE 17 20 1016.2 F 0.0 Fine Partly cloudy 40 - - - -
25/02:30pm 24.3 ENE 16 22 1016.5 - 0.0 - Mostly clear 10 - - - -
25/02:00pm 23.7 ENE 14 16 1016.8 - 0.0 - Partly cloudy 10 - - - -
25/01:30pm 23.4 NE 16 18 1017.2 - 0.0 - Partly cloudy 10 - - - -
25/01:00pm 24.7 NE 12 17 1017.7 - 0.0 - Partly cloudy 10 - - - -
25/12:30pm 23.7 ENE 11 15 1018.2 - 0.0 - Partly cloudy 10 - - - -
25/12:00pm 25.2 ESE 7 10 1018.8 F 0.0 Fine Partly cloudy 45 - - - -
25/11:30am 24.0 ENE 8 12 1019.5 - 0.0 - Partly cloudy 10 - - - -
25/11:00am 24.1 ENE 6 9 1020.1 - 0.0 - Partly cloudy 10 - - - -
25/10:30am 22.8 SSE 8 15 1020.3 - 0.0 - Partly cloudy 10 - - - -
25/10:00am 23.5 SE 8 14 1020.5 - 0.0 - Mostly clear 10 - - - -
25/09:30am 22.5 SW 5 8 1020.5 - 0.0 - Mostly clear 10 - - - -
25/09:00am 22.0 SSW 3 6 1020.5 S 0.0 Fine Mostly clear 45 - - - -
25/08:30am 21.1 SSW 7 8 1020.3 - 0.0 - Mostly clear 10 - - - -
25/08:00am 19.1 S 5 6 1020.0 - 0.0 - Mostly clear 10 - - - -
25/07:30am 17.7 S 5 5 1019.8 - 0.0 - Mostly clear 10 - - - -
25/07:00am 16.0 S 5 5 1019.4 - 0.0 - Mostly clear 10 - - - -
25/06:33am 14.8 SSE 2 5 1019.2 - 0.0 Shallow fog Mostly clear 10 - - - -
25/06:30am 14.6 - 1 5 1019.2 - 0.0 Shallow fog Mostly clear 10 - - - -
25/06:00am 14.1 CALM 0 0 1018.8 R 0.0 Fine Mostly clear 30 - - - -
25/05:30am 14.1 CALM 0 0 1018.5 - 0.0 - - 10 - - - -
25/05:00am 13.8 CALM 0 0 1018.1 - 0.0 - - 10 - - - -
25/04:30am 14.3 CALM 0 0 1017.9 - 0.0 - - 10 - - - -
25/04:00am 14.5 CALM 0 0 1017.8 - 0.0 - - 10 - - - -
25/03:30am 14.3 CALM 0 0 1017.8 - 0.0 - - 10 - - - -
25/03:00am 14.8 CALM 0 0 1018.0 - 0.0 - - 10 - - - -
25/02:30am 15.1 CALM 0 0 1018.3 - 0.0 - - 10 - - - -
25/02:00am 15.1 CALM 0 0 1018.5 - 0.0 - - 10 - - - -
25/01:30am 15.4 SW 4 4 1018.9 - 0.0 - - 10 - - - -
25/01:00am 15.2 CALM 0 0 1019.1 - 0.0 - - 10 - - - -
25/12:30am 17.2 SSW 5 6 1019.3 - 0.0 - - 10 - - - -
25/12:00am 18.5 SE 4 4 1019.6 - 0.0 - - 10 - - - -
 
Date/Time
EST
Temp

°C
Wind Pressure Rain
since 9am
mm
Weather Cloud Vis
km
Sea
Height
m
Swell
Dir
 
Speed
knots
Gust
knots
hPa Trend Height
m
Period
s
Dir
24/11:30pm 17.9 SE 4 5 1019.6 - 0.0 - - 10 - - - -
24/11:00pm 19.1 ESE 4 5 1019.6 - 0.0 - - 10 - - - -

Other Formats:

Comma delimited format used in spreadsheet applications
http://www.bom.gov.au/fwo/IDQ60701/IDQ60701.94294.axf

JavaScript Object Notation format (JSON) in row-major order
http://www.bom.gov.au/fwo/IDQ60701/IDQ60701.94294.json